Terminal Aerodrome Forecast
Issued by NWS Blacksburg, VA

Current Version | Previous Version | Graphics & Text | Print | Product List | Glossary On
Versions: 1 2 3 4 5 6 7 8 9 10 11 12 13 14 15 16 17 18 19 20 21 22 23 24 25 26 27 28 29 30 31 32 33 34
000
FTUS41 KRNK 251731
TAFBLF
TAF
KBLF 251731Z 2518/2618 00000KT P6SM SCT035
     FM252300 10003KT P6SM SCT035
     FM260800 VRB03KT 4SM BR SCT012
      TEMPO 2609/2612 1SM BR SCT005 BKN010
     FM261400 VRB03KT P6SM SCT020=

USA.gov is the U.S. government's official web portal to all federal, state and local government web resources and services.